Oakland, NJ (07436)

11:00 PM EDT on August 24, 2016 (GMT -0400)
83 Oakland-Hiawatha Blvd | | Change Station

Elev 295 ft 41.03 °N, 74.24 °W | Updated 1 second ago

Clear
Clear
68.2 °F
Feels Like 68.2 °F
N
0.0
Wind Variable Wind from ENE
Gusts 1.0 mph

Today
High -- | Low -- °F
--% Chance of Precip.
Yesterday
High -- | Low -- °F
Precip. -- in
Pressure 30.19 in
Visibility 10.0 miles
Clouds Clear
Dew Point 64 °F
Humidity 85%
Rainfall in
Snow Depth Not available.
6:16 AM 7:41 PM
Waning Gibbous, 50% visible
METAR KCDW 250253Z AUTO 00000KT 10SM CLR 23/17 A3018 RMK AO2 SLP223 T02330167 51005 TSNO
Pressure 30.19 in
Visibility 10.0 miles
Clouds Clear
Dew Point 64 °F
Humidity 85%
Rainfall in
Snow Depth Not available.
6:16 AM 7:41 PM
Waning Gibbous, 50% visible
METAR KCDW 250253Z AUTO 00000KT 10SM CLR 23/17 A3018 RMK AO2 SLP223 T02330167 51005 TSNO

10-Day Weather Forecast

Almanac

Astronomy

Aug. 24, 2016 Rise Set
Actual Time
Civil Twilight
Nautical Twilight
Astronomical Twilight
Moon
Length of Visible Light
Length of Day
Tomorrow will be .
, % of the Moon is Illuminated

Today's Extremes

State Highs State Lows

Community

WunderPhotos

Upload Photos

1,934,779 photos uploaded!

WunderBlog® & News

Nearby

Air Quality

  Air Quality AQ Index Pollutant
Not available.

Snow Depth

Station Depth Elevation

Earthquake Activity

City Distance Mag. Time & Date
Minimum magnitude displayed is 2.5.

Coastal Water Temperatures

Place Temperature

Stations

Nearby Weather Stations

Station Location Temp. Windchill Dew Point Humidity Wind Precip. Elev Updated Type
                   

Watches & Warnings

There are currently no watches in effect.